createdAt,value
2023-05-25T00:00:28.862Z,92.06
2023-05-25T00:01:28.862Z,91.86
2023-05-25T00:02:28.968Z,91.91
2023-05-25T00:03:28.934Z,91.91
2023-05-25T00:04:28.905Z,92.02
2023-05-25T00:05:28.828Z,91.82
2023-05-25T00:06:28.821Z,91.50
2023-05-25T00:07:28.841Z,91.40
2023-05-25T00:08:28.827Z,91.30
2023-05-25T00:09:28.817Z,91.26
2023-05-25T00:10:28.796Z,91.67
2023-05-25T00:11:28.779Z,91.26
2023-05-25T00:12:28.778Z,90.95
2023-05-25T00:13:28.768Z,90.75
2023-05-25T00:14:28.755Z,90.84
2023-05-25T00:15:28.750Z,90.75
2023-05-25T00:16:28.750Z,90.75
2023-05-25T00:17:28.738Z,90.44
2023-05-25T00:18:28.734Z,90.39
2023-05-25T00:19:28.731Z,90.39
2023-05-25T00:20:28.773Z,90.50
2023-05-25T00:21:28.706Z,90.39
2023-05-25T00:22:28.720Z,90.30
2023-05-25T00:23:28.693Z,90.09
2023-05-25T00:24:28.683Z,90.09
2023-05-25T00:25:28.677Z,90.19
2023-05-25T00:26:28.667Z,90.09
2023-05-25T00:27:28.669Z,89.64
2023-05-25T00:28:28.653Z,89.43
2023-05-25T00:29:28.650Z,89.33
2023-05-25T00:30:28.638Z,89.23
2023-05-25T00:31:28.721Z,89.23
2023-05-25T00:32:28.651Z,89.33
2023-05-25T00:33:28.621Z,89.33
2023-05-25T00:34:28.611Z,89.12
2023-05-25T00:35:28.617Z,89.03
2023-05-25T00:36:28.606Z,88.92
2023-05-25T00:37:28.604Z,88.82
2023-05-25T00:38:28.583Z,88.41
2023-05-25T00:39:28.584Z,88.00
2023-05-25T00:40:28.561Z,87.70
2023-05-25T00:41:28.588Z,88.31
2023-05-25T00:42:28.550Z,87.70
2023-05-25T00:43:28.542Z,87.70
2023-05-25T00:44:28.535Z,88.00
2023-05-25T00:45:28.527Z,88.00
2023-05-25T00:46:28.579Z,87.49
2023-05-25T00:47:28.575Z,88.20
2023-05-25T00:48:28.512Z,87.79
2023-05-25T00:49:28.500Z,88.10
2023-05-25T00:50:28.491Z,87.79
2023-05-25T00:51:28.482Z,88.04
2023-05-25T00:52:28.496Z,88.00
2023-05-25T00:53:28.469Z,88.04
2023-05-25T00:54:28.463Z,88.24
2023-05-25T00:55:28.456Z,88.35
2023-05-25T00:56:28.461Z,88.35
2023-05-25T00:57:28.446Z,88.45
2023-05-25T00:58:28.434Z,88.65
2023-05-25T00:59:28.423Z,88.86
2023-05-25T01:00:28.416Z,88.90
2023-05-25T01:01:28.460Z,88.59
2023-05-25T01:02:28.411Z,89.11
2023-05-25T01:03:28.505Z,89.51
2023-05-25T01:04:28.400Z,89.51
2023-05-25T01:05:28.380Z,89.31
2023-05-25T01:06:28.373Z,89.45
2023-05-25T01:07:28.366Z,89.42
2023-05-25T01:08:28.359Z,89.66
2023-05-25T01:09:28.351Z,90.17
2023-05-25T01:10:28.341Z,90.28
2023-05-25T01:11:28.366Z,90.28
2023-05-25T01:12:28.325Z,90.48
2023-05-25T01:13:28.321Z,90.28
2023-05-25T01:14:28.311Z,90.17
2023-05-25T01:15:28.303Z,90.17
2023-05-25T01:16:28.367Z,90.79
2023-05-25T01:17:28.359Z,90.83
2023-05-25T01:18:28.289Z,90.73
2023-05-25T01:19:28.272Z,91.14
2023-05-25T01:20:28.290Z,91.14
2023-05-25T01:21:28.258Z,91.49
2023-05-25T01:22:28.264Z,91.59
2023-05-25T01:23:28.241Z,91.59
2023-05-25T01:24:28.235Z,92.16
2023-05-25T01:25:28.239Z,92.10
2023-05-25T01:26:28.219Z,92.00
2023-05-25T01:27:28.309Z,91.90
2023-05-25T01:28:28.202Z,92.00
2023-05-25T01:29:28.193Z,92.00
2023-05-25T01:30:28.185Z,91.80
2023-05-25T01:31:28.208Z,92.41
2023-05-25T01:32:28.174Z,92.51
2023-05-25T01:33:28.164Z,92.10
2023-05-25T01:34:28.170Z,92.41
2023-05-25T01:35:28.187Z,92.51
2023-05-25T01:36:28.151Z,92.76
2023-05-25T01:37:28.139Z,92.46
2023-05-25T01:38:28.127Z,92.66
2023-05-25T01:39:28.122Z,92.86
2023-05-25T01:40:28.107Z,92.55
2023-05-25T01:41:28.107Z,92.76
2023-05-25T01:42:28.090Z,93.52
2023-05-25T01:43:28.083Z,93.38
2023-05-25T01:44:28.076Z,93.48
2023-05-25T01:45:28.071Z,93.48
2023-05-25T01:46:28.111Z,93.38
2023-05-25T01:47:28.083Z,93.48
2023-05-25T01:48:28.045Z,93.32
2023-05-25T01:49:28.179Z,93.83
2023-05-25T01:50:28.026Z,93.63
2023-05-25T01:51:28.024Z,93.42
2023-05-25T01:52:28.038Z,93.83
2023-05-25T01:53:28.004Z,93.93
2023-05-25T01:54:27.994Z,94.34
2023-05-25T01:55:27.989Z,94.55
2023-05-25T01:56:27.981Z,94.55
2023-05-25T01:57:27.972Z,94.55
2023-05-25T01:58:27.966Z,94.34
2023-05-25T01:59:27.953Z,94.45
2023-05-25T02:00:27.946Z,94.14
2023-05-25T02:01:28.002Z,94.76
2023-05-25T02:02:27.965Z,94.85
2023-05-25T02:03:27.929Z,94.85
2023-05-25T02:04:27.954Z,94.85
2023-05-25T02:05:27.996Z,94.76
2023-05-25T02:06:27.900Z,94.80
2023-05-25T02:07:27.899Z,94.59
2023-05-25T02:08:27.888Z,95.31
2023-05-25T02:09:27.920Z,94.90
2023-05-25T02:10:27.868Z,95.10
2023-05-25T02:11:27.867Z,94.70
2023-05-25T02:12:27.853Z,94.90
2023-05-25T02:13:27.867Z,94.90
2023-05-25T02:14:27.840Z,95.01
2023-05-25T02:15:27.830Z,95.10
2023-05-25T02:16:27.947Z,95.10
2023-05-25T02:17:27.888Z,95.10
2023-05-25T02:18:27.822Z,95.01
2023-05-25T02:19:27.798Z,95.10
2023-05-25T02:20:27.835Z,95.42
2023-05-25T02:21:27.782Z,95.52
2023-05-25T02:22:27.775Z,95.52
2023-05-25T02:23:27.763Z,95.62
2023-05-25T02:24:27.755Z,96.14
2023-05-25T02:25:27.754Z,96.03
2023-05-25T02:26:27.742Z,96.03
2023-05-25T02:27:27.736Z,95.42
2023-05-25T02:28:27.726Z,95.77
2023-05-25T02:29:27.716Z,95.83
2023-05-25T02:30:27.722Z,96.34
2023-05-25T02:31:27.738Z,96.34
2023-05-25T02:32:27.735Z,96.75
2023-05-25T02:33:27.686Z,95.83
2023-05-25T02:34:27.679Z,95.93
2023-05-25T02:35:27.674Z,97.06
2023-05-25T02:36:27.658Z,96.85
2023-05-25T02:37:27.663Z,97.00
2023-05-25T02:38:27.643Z,96.90
2023-05-25T02:39:27.642Z,96.55
2023-05-25T02:40:27.647Z,96.03
2023-05-25T02:41:27.627Z,96.23
2023-05-25T02:42:27.613Z,96.34
2023-05-25T02:43:27.602Z,96.23
2023-05-25T02:44:27.624Z,96.75
2023-05-25T02:45:27.592Z,96.55
2023-05-25T02:46:27.604Z,96.14
2023-05-25T02:47:27.588Z,96.75
2023-05-25T02:48:27.559Z,96.65
2023-05-25T02:49:27.551Z,96.75
2023-05-25T02:50:27.549Z,96.85
2023-05-25T02:51:27.534Z,96.55
2023-05-25T02:52:27.524Z,97.16
2023-05-25T02:53:27.525Z,96.75
2023-05-25T02:54:27.522Z,96.44
2023-05-25T02:55:27.509Z,96.65
2023-05-25T02:56:27.511Z,96.65
2023-05-25T02:57:27.489Z,96.75
2023-05-25T02:58:27.476Z,96.95
2023-05-25T02:59:27.464Z,97.16
2023-05-25T03:00:27.516Z,97.27
2023-05-25T03:01:27.504Z,96.34
2023-05-25T03:02:27.478Z,96.55
2023-05-25T03:03:27.458Z,96.55
2023-05-25T03:04:27.423Z,97.06
2023-05-25T03:05:27.419Z,96.95
2023-05-25T03:06:27.416Z,96.65
2023-05-25T03:07:27.400Z,96.75
2023-05-25T03:08:27.395Z,96.65
2023-05-25T03:09:27.382Z,96.55
2023-05-25T03:10:27.373Z,96.75
2023-05-25T03:11:27.366Z,96.44
2023-05-25T03:12:27.357Z,96.23
2023-05-25T03:13:27.351Z,96.85
2023-05-25T03:14:27.344Z,96.65
2023-05-25T03:15:27.336Z,97.16
2023-05-25T03:16:27.360Z,96.70
2023-05-25T03:17:27.360Z,96.70
2023-05-25T03:18:27.308Z,96.60
2023-05-25T03:19:27.299Z,96.60
2023-05-25T03:20:27.306Z,96.60
2023-05-25T03:21:27.294Z,96.60
2023-05-25T03:22:27.280Z,96.50
2023-05-25T03:23:27.266Z,96.30
2023-05-25T03:24:27.266Z,96.40
2023-05-25T03:25:27.255Z,96.70
2023-05-25T03:26:27.255Z,96.30
2023-05-25T03:27:27.247Z,96.60
2023-05-25T03:28:27.226Z,96.19
2023-05-25T03:29:27.215Z,96.50
2023-05-25T03:30:27.209Z,96.70
2023-05-25T03:31:27.229Z,96.91
2023-05-25T03:32:27.260Z,95.78
2023-05-25T03:33:27.184Z,96.50
2023-05-25T03:34:27.186Z,95.68
2023-05-25T03:35:27.175Z,96.09
2023-05-25T03:36:27.161Z,96.09
2023-05-25T03:37:27.152Z,95.68
2023-05-25T03:38:27.143Z,96.40
2023-05-25T03:39:27.134Z,96.70
2023-05-25T03:40:27.122Z,96.40
2023-05-25T03:41:27.120Z,96.77
2023-05-25T03:42:27.112Z,95.95
2023-05-25T03:43:27.107Z,94.99
2023-05-25T03:44:27.097Z,93.20
2023-05-25T03:45:27.089Z,93.26
2023-05-25T03:46:27.100Z,92.10
2023-05-25T03:47:27.103Z,90.99
2023-05-25T03:48:27.063Z,90.12
2023-05-25T03:49:27.051Z,87.84
2023-05-25T03:50:27.048Z,86.06
2023-05-25T03:51:27.036Z,84.96
2023-05-25T03:52:27.025Z,83.29
2023-05-25T03:53:27.018Z,80.91
2023-05-25T03:54:27.010Z,79.75
2023-05-25T03:55:27.001Z,78.49
2023-05-25T03:56:26.992Z,77.98
2023-05-25T03:57:27.162Z,77.74
2023-05-25T03:58:26.979Z,76.92
2023-05-25T03:59:26.971Z,76.72
2023-05-25T04:00:26.962Z,76.72
2023-05-25T04:01:26.953Z,76.82
2023-05-25T04:02:27.013Z,76.52
2023-05-25T04:03:27.022Z,76.45
2023-05-25T04:04:26.970Z,74.72
2023-05-25T04:05:26.922Z,74.88
2023-05-25T04:06:26.925Z,74.14
2023-05-25T04:07:26.907Z,73.80
2023-05-25T04:08:26.897Z,72.85
2023-05-25T04:09:26.899Z,71.40
2023-05-25T04:10:26.892Z,70.35
2023-05-25T04:11:26.878Z,71.16
2023-05-25T04:12:26.887Z,71.09
2023-05-25T04:13:26.901Z,69.74
2023-05-25T04:14:26.873Z,70.35
2023-05-25T04:15:26.850Z,70.25
2023-05-25T04:16:26.879Z,69.10
2023-05-25T04:17:26.856Z,69.78
2023-05-25T04:18:26.843Z,69.14
2023-05-25T04:19:26.835Z,67.11
2023-05-25T04:20:26.868Z,66.88
2023-05-25T04:21:26.809Z,66.78
2023-05-25T04:22:26.801Z,66.38
2023-05-25T04:23:26.799Z,66.14
2023-05-25T04:24:26.787Z,66.04
2023-05-25T04:25:29.402Z,65.88
2023-05-25T04:26:26.794Z,64.46
2023-05-25T04:27:26.771Z,66.48
2023-05-25T04:28:26.759Z,65.27
2023-05-25T04:29:26.757Z,64.26
2023-05-25T04:30:26.742Z,64.90
2023-05-25T04:31:26.767Z,64.56
2023-05-25T04:32:26.783Z,64.70
2023-05-25T04:33:26.729Z,64.83
2023-05-25T04:34:26.732Z,66.14
2023-05-25T04:35:26.716Z,65.81
2023-05-25T04:36:26.741Z,65.88
2023-05-25T04:37:26.698Z,65.47
2023-05-25T04:38:26.693Z,64.87
2023-05-25T04:39:26.694Z,64.84
2023-05-25T04:40:26.679Z,64.61
2023-05-25T04:41:26.671Z,63.62
2023-05-25T04:42:26.671Z,64.61
2023-05-25T04:43:26.664Z,63.59
2023-05-25T04:44:26.660Z,62.76
2023-05-25T04:45:26.655Z,62.55
2023-05-25T04:46:26.732Z,62.73
2023-05-25T04:47:26.641Z,62.83
2023-05-25T04:48:26.675Z,62.37
2023-05-25T04:49:26.622Z,60.96
2023-05-25T04:50:26.614Z,59.95
2023-05-25T04:51:26.608Z,61.13
2023-05-25T04:52:26.606Z,60.60
2023-05-25T04:53:26.599Z,59.16
2023-05-25T04:54:26.610Z,59.26
2023-05-25T04:55:26.586Z,59.13
2023-05-25T04:56:26.579Z,58.33
2023-05-25T04:57:26.579Z,58.53
2023-05-25T04:58:26.571Z,58.40
2023-05-25T04:59:26.569Z,58.80
2023-05-25T05:00:26.562Z,59.26
2023-05-25T05:01:26.705Z,59.13
2023-05-25T05:02:26.556Z,58.40
2023-05-25T05:03:26.563Z,57.46
2023-05-25T05:04:26.538Z,57.46
2023-05-25T05:05:26.539Z,58.64
2023-05-25T05:06:26.536Z,57.08
2023-05-25T05:07:26.519Z,55.85
2023-05-25T05:08:26.515Z,54.95
2023-05-25T05:09:26.512Z,55.28
2023-05-25T05:10:26.508Z,55.18
2023-05-25T05:11:26.498Z,55.71
2023-05-25T05:12:26.533Z,55.40
2023-05-25T05:13:26.493Z,55.91
2023-05-25T05:14:26.484Z,56.08
2023-05-25T05:15:26.481Z,55.32
2023-05-25T05:16:26.499Z,54.93
2023-05-25T05:17:26.539Z,54.82
2023-05-25T05:18:26.466Z,54.43
2023-05-25T05:19:26.459Z,54.90
2023-05-25T05:20:26.527Z,53.77
2023-05-25T05:21:26.450Z,53.85
2023-05-25T05:22:26.452Z,52.87
2023-05-25T05:23:26.441Z,53.24
2023-05-25T05:24:26.438Z,53.24
2023-05-25T05:25:26.435Z,52.52
2023-05-25T05:26:26.430Z,51.42
2023-05-25T05:27:26.457Z,52.22
2023-05-25T05:28:26.419Z,51.92
2023-05-25T05:29:26.418Z,52.04
2023-05-25T05:30:26.415Z,52.37
2023-05-25T05:31:26.441Z,52.64
2023-05-25T05:32:26.415Z,52.94
2023-05-25T05:33:26.531Z,52.32
2023-05-25T05:34:26.450Z,51.89
2023-05-25T05:35:26.405Z,52.52
2023-05-25T05:36:26.390Z,51.20
2023-05-25T05:37:26.384Z,52.32
2023-05-25T05:38:26.444Z,52.02
2023-05-25T05:39:26.371Z,51.87
2023-05-25T05:40:26.372Z,51.84
2023-05-25T05:41:26.371Z,51.40
2023-05-25T05:42:26.371Z,49.98
2023-05-25T05:43:26.361Z,50.25
2023-05-25T05:44:28.947Z,48.83
2023-05-25T05:45:26.362Z,48.35
2023-05-25T05:46:26.383Z,49.18
2023-05-25T05:47:26.359Z,49.08
2023-05-25T05:48:26.347Z,49.00
2023-05-25T05:49:26.355Z,50.02
2023-05-25T05:50:26.343Z,50.60
2023-05-25T05:51:26.338Z,51.17
2023-05-25T05:52:26.339Z,48.88
2023-05-25T05:53:26.336Z,50.15
2023-05-25T05:54:26.330Z,49.03
2023-05-25T05:55:26.346Z,49.98
2023-05-25T05:56:26.324Z,48.16
2023-05-25T05:57:26.322Z,49.33
2023-05-25T05:58:26.322Z,47.32
2023-05-25T05:59:26.316Z,45.41
2023-05-25T06:00:26.318Z,44.42
2023-05-25T06:01:26.309Z,46.31
2023-05-25T06:02:26.380Z,45.31
2023-05-25T06:03:26.343Z,45.11
2023-05-25T06:04:26.308Z,45.29
2023-05-25T06:05:26.347Z,46.38
2023-05-25T06:06:26.307Z,46.36
2023-05-25T06:07:26.312Z,45.34
2023-05-25T06:08:26.318Z,44.83
2023-05-25T06:09:26.307Z,44.71
2023-05-25T06:10:26.301Z,43.49
2023-05-25T06:11:26.297Z,43.60
2023-05-25T06:12:26.302Z,42.50
2023-05-25T06:13:26.296Z,43.70
2023-05-25T06:14:28.328Z,43.30
2023-05-25T06:15:26.297Z,43.06
2023-05-25T06:16:26.342Z,42.68
2023-05-25T06:17:26.321Z,42.17
2023-05-25T06:18:26.305Z,41.47
2023-05-25T06:19:26.296Z,41.75
2023-05-25T06:20:26.333Z,40.98
2023-05-25T06:21:26.308Z,41.22
2023-05-25T06:22:26.341Z,41.41
2023-05-25T06:23:26.300Z,42.71
2023-05-25T06:24:26.317Z,43.30
2023-05-25T06:25:26.294Z,42.78
2023-05-25T06:26:26.301Z,42.76
2023-05-25T06:27:26.302Z,42.17
2023-05-25T06:28:26.299Z,42.14
2023-05-25T06:29:26.305Z,40.96
2023-05-25T06:30:26.304Z,41.25
2023-05-25T06:31:26.345Z,41.44
2023-05-25T06:32:26.347Z,39.95
2023-05-25T06:33:26.312Z,40.82
2023-05-25T06:34:26.309Z,40.53
2023-05-25T06:35:26.310Z,41.99
2023-05-25T06:36:27.429Z,39.64
2023-05-25T06:37:26.308Z,40.42
2023-05-25T06:38:26.305Z,39.34
2023-05-25T06:39:26.308Z,39.24
2023-05-25T06:40:26.315Z,39.04
2023-05-25T06:41:26.317Z,39.83
2023-05-25T06:42:26.314Z,39.52
2023-05-25T06:43:26.321Z,40.80
2023-05-25T06:44:26.317Z,40.58
2023-05-25T06:45:26.322Z,38.98
2023-05-25T06:46:26.361Z,39.09
2023-05-25T06:47:26.325Z,39.38
2023-05-25T06:48:26.326Z,39.11
2023-05-25T06:49:26.329Z,38.81
2023-05-25T06:50:26.336Z,40.07
2023-05-25T06:51:26.326Z,38.57
2023-05-25T06:52:26.334Z,38.08
2023-05-25T06:53:26.339Z,37.78
2023-05-25T06:54:26.333Z,38.20
2023-05-25T06:55:26.346Z,38.87
2023-05-25T06:56:26.350Z,37.76
2023-05-25T06:57:26.340Z,37.66
2023-05-25T06:58:26.342Z,38.54
2023-05-25T06:59:26.347Z,38.34
2023-05-25T07:00:26.393Z,37.83
2023-05-25T07:01:26.401Z,37.95
2023-05-25T07:02:26.422Z,38.51
2023-05-25T07:03:26.353Z,37.43
2023-05-25T07:04:26.357Z,37.41
2023-05-25T07:05:26.401Z,36.43
2023-05-25T07:06:26.398Z,37.43
2023-05-25T07:07:26.361Z,37.02
2023-05-25T07:08:26.370Z,37.71
2023-05-25T07:09:26.378Z,37.91
2023-05-25T07:10:26.417Z,38.60
2023-05-25T07:11:26.377Z,37.12
2023-05-25T07:12:26.396Z,37.12
2023-05-25T07:13:26.393Z,37.61
2023-05-25T07:14:26.393Z,35.76
2023-05-25T07:15:26.394Z,35.60
2023-05-25T07:16:26.452Z,37.60
2023-05-25T07:17:26.477Z,37.01
2023-05-25T07:18:26.405Z,37.11
2023-05-25T07:19:26.404Z,36.82
2023-05-25T07:20:26.521Z,38.08
2023-05-25T07:21:26.413Z,37.45
2023-05-25T07:22:26.412Z,36.52
2023-05-25T07:23:26.442Z,38.61
2023-05-25T07:24:26.416Z,38.63
2023-05-25T07:25:26.432Z,37.45
2023-05-25T07:26:26.427Z,37.84
2023-05-25T07:27:26.428Z,37.74
2023-05-25T07:28:26.442Z,38.59
2023-05-25T07:29:26.434Z,36.12
2023-05-25T07:30:26.438Z,38.02
2023-05-25T07:31:26.496Z,38.02
2023-05-25T07:32:26.461Z,38.43
2023-05-25T07:33:26.454Z,38.13
2023-05-25T07:34:27.814Z,38.04
2023-05-25T07:35:26.465Z,38.63
2023-05-25T07:36:26.464Z,38.71
2023-05-25T07:37:26.468Z,36.83
2023-05-25T07:38:26.503Z,37.72
2023-05-25T07:39:26.474Z,36.71
2023-05-25T07:40:26.465Z,36.80
2023-05-25T07:41:26.474Z,37.39
2023-05-25T07:42:26.484Z,36.88
2023-05-25T07:43:26.484Z,37.17
2023-05-25T07:44:26.491Z,36.52
2023-05-25T07:45:26.489Z,37.85
2023-05-25T07:46:26.564Z,37.87
2023-05-25T07:47:26.519Z,38.35
2023-05-25T07:48:26.496Z,38.27
2023-05-25T07:49:26.497Z,37.51
2023-05-25T07:50:26.498Z,39.55
2023-05-25T07:51:26.518Z,39.06
2023-05-25T07:52:26.502Z,38.82
2023-05-25T07:53:26.515Z,39.02
2023-05-25T07:54:26.520Z,38.60
2023-05-25T07:55:26.517Z,38.85
2023-05-25T07:56:26.517Z,38.66
2023-05-25T07:57:26.555Z,38.23
2023-05-25T07:58:26.542Z,37.99
2023-05-25T07:59:26.522Z,36.79
2023-05-25T08:00:26.533Z,37.38
2023-05-25T08:01:27.120Z,37.49
2023-05-25T08:02:26.643Z,38.01
2023-05-25T08:03:39.793Z,38.07
2023-05-25T08:04:26.594Z,37.94
2023-05-25T08:05:26.542Z,36.54
2023-05-25T08:06:26.548Z,36.82
2023-05-25T08:07:26.552Z,36.38
2023-05-25T08:08:26.559Z,32.56
2023-05-25T08:09:26.558Z,33.69
2023-05-25T08:10:26.555Z,35.22
2023-05-25T08:11:26.560Z,37.45
2023-05-25T08:12:46.169Z,36.02
2023-05-25T08:13:26.584Z,37.90
2023-05-25T08:14:26.572Z,38.00
2023-05-25T08:15:26.587Z,37.88
2023-05-25T08:16:26.597Z,37.73
2023-05-25T08:17:26.611Z,36.61
2023-05-25T08:18:26.580Z,35.82
2023-05-25T08:19:26.580Z,35.70
2023-05-25T08:20:26.633Z,34.46
2023-05-25T08:21:26.583Z,36.36
2023-05-25T08:22:26.590Z,37.69
2023-05-25T08:23:26.624Z,37.54
2023-05-25T08:24:26.595Z,38.87
2023-05-25T08:25:26.654Z,39.37
2023-05-25T08:26:38.323Z,40.14
2023-05-25T08:27:26.598Z,38.95
2023-05-25T08:28:26.600Z,38.04
2023-05-25T08:29:26.602Z,38.30
2023-05-25T08:30:26.607Z,38.10
2023-05-25T08:31:26.673Z,37.88
2023-05-25T08:32:26.614Z,37.57
2023-05-25T08:33:26.608Z,36.60
2023-05-25T08:34:26.606Z,37.41
2023-05-25T08:35:26.609Z,38.24
2023-05-25T08:36:26.608Z,39.39
2023-05-25T08:37:26.617Z,40.10
2023-05-25T08:38:26.614Z,41.02
2023-05-25T08:39:26.611Z,40.68
2023-05-25T08:40:26.612Z,41.22
2023-05-25T08:41:26.630Z,41.16
2023-05-25T08:42:26.614Z,43.35
2023-05-25T08:43:26.634Z,43.87
2023-05-25T08:44:26.614Z,45.62
2023-05-25T08:45:34.310Z,46.94
2023-05-25T08:46:26.613Z,47.46
2023-05-25T08:47:26.626Z,48.57
2023-05-25T08:48:40.150Z,47.86
2023-05-25T08:49:26.619Z,47.19
2023-05-25T08:50:26.618Z,47.58
2023-05-25T08:51:26.611Z,46.12
2023-05-25T08:52:26.629Z,47.35
2023-05-25T08:53:26.638Z,45.84
2023-05-25T08:54:26.616Z,47.35
2023-05-25T08:55:26.619Z,47.38
2023-05-25T08:56:26.621Z,48.28
2023-05-25T08:57:26.612Z,48.05
2023-05-25T08:58:26.604Z,48.11
2023-05-25T08:59:26.613Z,47.14
2023-05-25T09:00:26.610Z,45.31
2023-05-25T09:01:26.655Z,45.50
2023-05-25T09:02:26.642Z,46.00
2023-05-25T09:03:26.773Z,45.27
2023-05-25T09:04:26.611Z,44.87
2023-05-25T09:05:26.614Z,44.57
2023-05-25T09:06:26.603Z,44.47
2023-05-25T09:07:26.606Z,45.23
2023-05-25T09:08:26.604Z,43.41
2023-05-25T09:09:26.604Z,42.43
2023-05-25T09:10:26.604Z,43.63
2023-05-25T09:11:37.269Z,45.27
2023-05-25T09:12:26.600Z,47.24
2023-05-25T09:13:26.666Z,47.96
2023-05-25T09:14:26.603Z,49.49
2023-05-25T09:15:26.599Z,50.11
2023-05-25T09:16:26.641Z,49.84
2023-05-25T09:17:26.614Z,50.74
2023-05-25T09:18:26.618Z,50.74
2023-05-25T09:19:26.594Z,50.44
2023-05-25T09:20:26.632Z,50.34
2023-05-25T09:21:26.596Z,50.44
2023-05-25T09:22:26.602Z,50.63
2023-05-25T09:23:26.592Z,47.53
2023-05-25T09:24:26.592Z,46.85
2023-05-25T09:25:26.589Z,47.75
2023-05-25T09:26:26.596Z,49.48
2023-05-25T09:27:26.589Z,50.91
2023-05-25T09:28:27.699Z,49.63
2023-05-25T09:29:26.588Z,50.43
2023-05-25T09:30:26.586Z,51.42
2023-05-25T09:31:26.622Z,51.64
2023-05-25T09:32:26.839Z,50.71
2023-05-25T09:33:26.596Z,51.31
2023-05-25T09:34:26.582Z,49.58
2023-05-25T09:35:26.581Z,50.18
2023-05-25T09:36:26.620Z,47.60
2023-05-25T09:37:26.661Z,48.02
2023-05-25T09:38:26.983Z,47.44
2023-05-25T09:39:26.589Z,49.55
2023-05-25T09:40:26.586Z,50.46
2023-05-25T09:41:26.577Z,50.56
2023-05-25T09:42:26.568Z,50.76
2023-05-25T09:43:40.760Z,50.05
2023-05-25T09:44:26.561Z,50.48
2023-05-25T09:45:26.556Z,51.79
2023-05-25T09:46:26.650Z,51.29
2023-05-25T09:47:26.572Z,52.49
2023-05-25T09:48:26.556Z,51.18
2023-05-25T09:49:26.550Z,52.59
2023-05-25T09:50:26.558Z,53.77
2023-05-25T09:51:26.542Z,53.37
2023-05-25T09:52:26.548Z,51.46
2023-05-25T09:53:26.538Z,52.37
2023-05-25T09:54:26.535Z,53.27
2023-05-25T09:55:31.699Z,54.78
2023-05-25T09:56:26.530Z,55.46
2023-05-25T09:57:26.532Z,55.46
2023-05-25T09:58:26.521Z,55.76
2023-05-25T09:59:26.523Z,55.33
2023-05-25T10:00:26.523Z,51.69
2023-05-25T10:01:26.565Z,51.29
2023-05-25T10:02:26.540Z,51.19
2023-05-25T10:03:26.523Z,50.89
2023-05-25T10:04:26.555Z,51.42
2023-05-25T10:05:26.509Z,51.81
2023-05-25T10:06:26.509Z,52.89
2023-05-25T10:07:26.500Z,52.59
2023-05-25T10:08:28.895Z,54.20
2023-05-25T10:09:26.504Z,53.59
2023-05-25T10:10:26.499Z,54.10
2023-05-25T10:11:26.525Z,54.50
2023-05-25T10:12:26.494Z,54.70
2023-05-25T10:13:26.491Z,55.83
2023-05-25T10:14:29.145Z,56.23
2023-05-25T10:15:26.484Z,54.22
2023-05-25T10:16:26.558Z,55.43
2023-05-25T10:17:26.598Z,55.66
2023-05-25T10:18:26.578Z,55.46
2023-05-25T10:19:26.470Z,57.14
2023-05-25T10:20:29.328Z,55.03
2023-05-25T10:21:26.470Z,54.02
2023-05-25T10:22:26.544Z,51.31
2023-05-25T10:23:26.472Z,52.72
2023-05-25T10:24:26.489Z,53.12
2023-05-25T10:25:26.462Z,52.72
2023-05-25T10:26:26.461Z,54.00
2023-05-25T10:27:27.765Z,50.48
2023-05-25T10:28:26.455Z,51.21
2023-05-25T10:29:26.457Z,52.49
2023-05-25T10:30:26.446Z,53.00
2023-05-25T10:31:26.517Z,51.59
2023-05-25T10:32:26.553Z,50.99
2023-05-25T10:33:26.459Z,51.59
2023-05-25T10:34:26.454Z,52.77
2023-05-25T10:35:26.434Z,52.39
2023-05-25T10:36:26.442Z,51.19
2023-05-25T10:37:26.476Z,52.12
2023-05-25T10:38:26.430Z,51.44
2023-05-25T10:39:26.428Z,49.91
2023-05-25T10:40:26.418Z,50.13
2023-05-25T10:41:26.419Z,50.51
2023-05-25T10:42:26.422Z,49.51
2023-05-25T10:43:26.420Z,49.10
2023-05-25T10:44:26.423Z,50.03
2023-05-25T10:45:26.409Z,50.51
2023-05-25T10:46:26.433Z,50.81
2023-05-25T10:47:26.474Z,50.89
2023-05-25T10:48:26.407Z,50.59
2023-05-25T10:49:26.400Z,50.89
2023-05-25T10:50:26.399Z,50.09
2023-05-25T10:51:26.394Z,49.18
2023-05-25T10:52:26.393Z,48.18
2023-05-25T10:53:26.405Z,46.37
2023-05-25T10:54:26.389Z,48.38
2023-05-25T10:55:26.384Z,49.08
2023-05-25T10:56:26.385Z,50.76
2023-05-25T10:57:26.435Z,50.76
2023-05-25T10:58:26.379Z,50.66
2023-05-25T10:59:26.377Z,49.54
2023-05-25T11:00:26.404Z,49.31
2023-05-25T11:01:26.443Z,49.93
2023-05-25T11:02:26.386Z,50.31
2023-05-25T11:03:26.376Z,48.11
2023-05-25T11:04:26.439Z,49.04
2023-05-25T11:05:26.400Z,50.13
2023-05-25T11:06:26.359Z,50.44
2023-05-25T11:07:26.353Z,50.44
2023-05-25T11:08:26.362Z,50.06
2023-05-25T11:09:26.405Z,50.59
2023-05-25T11:10:26.355Z,51.37
2023-05-25T11:11:26.351Z,51.37
2023-05-25T11:12:26.350Z,51.64
2023-05-25T11:13:26.349Z,50.63
2023-05-25T11:14:26.349Z,50.44
2023-05-25T11:15:26.343Z,50.44
2023-05-25T11:16:26.370Z,50.46
2023-05-25T11:17:26.357Z,51.19
2023-05-25T11:18:26.341Z,51.69
2023-05-25T11:19:26.338Z,52.09
2023-05-25T11:20:26.350Z,52.07
2023-05-25T11:21:26.330Z,51.56
2023-05-25T11:22:26.334Z,51.87
2023-05-25T11:23:26.342Z,50.86
2023-05-25T11:24:26.342Z,52.07
2023-05-25T11:25:26.331Z,51.59
2023-05-25T11:26:26.339Z,51.19
2023-05-25T11:27:26.332Z,52.09
2023-05-25T11:28:26.317Z,53.59
2023-05-25T11:29:26.314Z,52.57
2023-05-25T11:30:26.314Z,52.57
2023-05-25T11:31:26.398Z,53.77
2023-05-25T11:32:26.435Z,52.75
2023-05-25T11:33:26.308Z,52.72
2023-05-25T11:34:26.305Z,51.39
2023-05-25T11:35:26.304Z,51.27
2023-05-25T11:36:26.297Z,51.07
2023-05-25T11:37:26.301Z,51.27
2023-05-25T11:38:26.296Z,50.16
2023-05-25T11:39:26.304Z,50.37
2023-05-25T11:40:26.305Z,50.57
2023-05-25T11:41:26.342Z,50.87
2023-05-25T11:42:26.330Z,50.67
2023-05-25T11:43:26.300Z,51.39
2023-05-25T11:44:26.290Z,51.97
2023-05-25T11:45:26.284Z,52.69
2023-05-25T11:46:26.321Z,53.07
2023-05-25T11:47:26.315Z,52.80
2023-05-25T11:48:26.277Z,52.62
2023-05-25T11:49:26.279Z,52.75
2023-05-25T11:50:26.275Z,53.05
2023-05-25T11:51:26.275Z,54.58
2023-05-25T11:52:26.282Z,54.50
2023-05-25T11:53:26.270Z,55.23
2023-05-25T11:54:26.290Z,55.93
2023-05-25T11:55:26.265Z,56.56
2023-05-25T11:56:35.060Z,57.17
2023-05-25T11:57:26.266Z,57.46
2023-05-25T11:58:26.263Z,57.24
2023-05-25T11:59:27.728Z,56.71
2023-05-25T12:00:26.264Z,56.81
2023-05-25T12:01:26.259Z,57.41
2023-05-25T12:02:26.295Z,57.94
2023-05-25T12:03:26.313Z,58.04
2023-05-25T12:04:26.293Z,57.14
2023-05-25T12:05:26.262Z,57.57
2023-05-25T12:06:26.245Z,58.87
2023-05-25T12:07:26.382Z,58.87
2023-05-25T12:08:26.243Z,59.00
2023-05-25T12:09:26.240Z,58.29
2023-05-25T12:10:26.245Z,59.20
2023-05-25T12:11:26.233Z,59.78
2023-05-25T12:12:26.231Z,59.38
2023-05-25T12:13:26.228Z,59.47
2023-05-25T12:14:26.224Z,59.08
2023-05-25T12:15:26.229Z,59.25
2023-05-25T12:16:26.239Z,59.27
2023-05-25T12:17:26.245Z,58.84
2023-05-25T12:18:26.214Z,59.17
2023-05-25T12:19:26.207Z,58.44
2023-05-25T12:20:26.241Z,58.87
2023-05-25T12:21:26.216Z,58.67
2023-05-25T12:22:26.217Z,59.10
2023-05-25T12:23:26.202Z,59.00
2023-05-25T12:24:26.203Z,58.77
2023-05-25T12:25:27.366Z,59.78
2023-05-25T12:26:26.197Z,59.98
2023-05-25T12:27:26.193Z,59.08
2023-05-25T12:28:26.196Z,60.78
2023-05-25T12:29:26.225Z,59.47
2023-05-25T12:30:26.193Z,60.31
2023-05-25T12:31:26.231Z,58.93
2023-05-25T12:32:26.224Z,59.26
2023-05-25T12:33:26.182Z,59.89
2023-05-25T12:34:26.177Z,60.69
2023-05-25T12:35:26.177Z,60.09
2023-05-25T12:36:26.171Z,60.60
2023-05-25T12:37:26.171Z,60.16
2023-05-25T12:38:26.195Z,59.46
2023-05-25T12:39:26.172Z,60.27
2023-05-25T12:40:26.161Z,59.89
2023-05-25T12:41:26.172Z,60.06
2023-05-25T12:42:26.167Z,59.66
2023-05-25T12:43:26.182Z,59.94
2023-05-25T12:44:26.160Z,59.80
2023-05-25T12:45:26.154Z,59.98
2023-05-25T12:46:26.183Z,59.78
2023-05-25T12:47:26.172Z,59.38
2023-05-25T12:48:26.141Z,59.65
2023-05-25T12:49:26.149Z,59.34
2023-05-25T12:50:26.134Z,58.51
2023-05-25T12:51:26.136Z,57.31
2023-05-25T12:52:26.132Z,57.41